Time;durP1;ratioP1;P1;durP2;ratioP2;P2;SDS_P1;SDS_P2;PMS_P1;PMS_P2;Temp;Humidity;BMP_temperature;BMP_pressure;BME280_temperature;BME280_humidity;BME280_pressure;Samples;Min_cycle;Max_cycle;Signal;HPM_P1;HPM_P2
2022/01/19 00:00:48;;;;;;;12.10;5.47;;;2.90;73.80;;;;;;4977123;28;20042;-68
2022/01/19 00:03:14;;;;;;;11.57;5.32;;;2.90;73.80;;;;;;4977285;28;20056;-69
2022/01/19 00:05:40;;;;;;;11.55;5.72;;;2.90;73.80;;;;;;4977068;28;20050;-68
2022/01/19 00:08:05;;;;;;;10.80;5.38;;;2.90;73.70;;;;;;4976602;28;20481;-69
2022/01/19 00:10:31;;;;;;;12.90;5.78;;;2.90;73.60;;;;;;4978566;28;20062;-69
2022/01/19 00:12:58;;;;;;;13.32;5.82;;;2.90;73.70;;;;;;4979132;28;20041;-70
2022/01/19 00:15:25;;;;;;;10.68;5.47;;;2.80;73.60;;;;;;4974523;28;20049;-69
2022/01/19 00:17:57;;;;;;;13.00;5.70;;;2.80;73.60;;;;;;4977309;28;20460;-68
2022/01/19 00:20:23;;;;;;;9.98;5.30;;;2.80;73.40;;;;;;4975007;28;20566;-69
2022/01/19 00:22:50;;;;;;;10.75;5.65;;;2.70;73.30;;;;;;4977977;28;20046;-70
2022/01/19 00:25:16;;;;;;;11.40;5.50;;;2.70;73.30;;;;;;4976815;28;20042;-67
2022/01/19 00:27:41;;;;;;;12.98;6.35;;;2.70;73.30;;;;;;4978717;28;20137;-69
2022/01/19 00:30:07;;;;;;;10.07;5.97;;;2.60;73.30;;;;;;4978548;28;20027;-69
2022/01/19 00:32:33;;;;;;;10.73;6.22;;;2.60;73.40;;;;;;4974430;28;20035;-69
2022/01/19 00:35:00;;;;;;;13.02;6.47;;;2.50;73.70;;;;;;4977574;28;20522;-68
2022/01/19 00:37:25;;;;;;;15.70;6.47;;;2.50;73.90;;;;;;4980354;28;20105;-69
2022/01/19 00:39:51;;;;;;;15.85;6.72;;;2.40;74.00;;;;;;4975727;28;20130;-70
2022/01/19 00:42:17;;;;;;;16.73;6.65;;;2.40;74.30;;;;;;4978255;28;20045;-69
2022/01/19 00:44:42;;;;;;;15.10;6.88;;;2.40;74.50;;;;;;4975795;28;20046;-69
2022/01/19 00:47:08;;;;;;;14.75;7.20;;;2.40;74.70;;;;;;4976682;28;20030;-69
2022/01/19 00:49:34;;;;;;;12.05;7.32;;;2.40;74.80;;;;;;4975814;28;20030;-68
2022/01/19 00:51:59;;;;;;;20.08;9.05;;;2.30;74.90;;;;;;4989577;28;20031;-69
2022/01/19 00:54:25;;;;;;;16.25;8.48;;;2.30;75.10;;;;;;4972347;28;20588;-69
2022/01/19 00:56:50;;;;;;;14.07;7.18;;;2.30;75.20;;;;;;4977454;28;20030;-69
2022/01/19 00:59:16;;;;;;;16.20;7.82;;;2.40;75.40;;;;;;4976609;28;20030;-69
2022/01/19 01:01:42;;;;;;;20.92;10.32;;;2.40;75.50;;;;;;4973518;28;20082;-68
2022/01/19 01:04:07;;;;;;;23.90;10.60;;;2.40;75.50;;;;;;4975650;28;20085;-67
2022/01/19 01:06:33;;;;;;;18.90;9.13;;;2.40;75.60;;;;;;4976849;28;20062;-68
2022/01/19 01:08:59;;;;;;;15.40;8.00;;;2.40;75.60;;;;;;4975995;28;20127;-69
2022/01/19 01:11:32;;;;;;;15.98;7.95;;;2.40;75.70;;;;;;4974773;28;20038;-69
2022/01/19 01:16:35;;;;;;;16.80;7.72;;;2.50;75.70;;;;;;4974043;28;20046;-70
2022/01/19 01:19:03;;;;;;;13.65;7.22;;;2.40;75.70;;;;;;4973610;28;20042;-68
2022/01/19 01:21:29;;;;;;;12.18;7.50;;;2.50;76.70;;;;;;4978248;28;20068;-69
2022/01/19 01:23:54;;;;;;;14.75;7.43;;;2.40;75.80;;;;;;4974633;28;20046;-69
2022/01/19 01:26:20;;;;;;;18.60;9.57;;;2.40;75.90;;;;;;4978640;28;20522;-69
2022/01/19 01:28:46;;;;;;;20.95;10.30;;;2.50;76.00;;;;;;4977853;28;20538;-68
2022/01/19 01:31:12;;;;;;;24.25;9.95;;;2.40;76.00;;;;;;4976859;28;20045;-69
2022/01/19 01:33:38;;;;;;;18.63;9.52;;;2.40;76.20;;;;;;4978875;28;20477;-68
2022/01/19 01:36:05;;;;;;;15.27;8.65;;;2.40;76.20;;;;;;4979601;28;20038;-69
2022/01/19 01:38:31;;;;;;;18.73;9.80;;;2.50;76.40;;;;;;4979677;28;20120;-68
2022/01/19 01:40:56;;;;;;;15.40;8.13;;;2.50;76.50;;;;;;4973303;28;20577;-68
2022/01/19 01:43:22;;;;;;;14.82;7.80;;;2.50;76.60;;;;;;4973709;28;20442;-68
2022/01/19 01:45:53;;;;;;;16.38;8.82;;;2.50;76.60;;;;;;4976577;28;20109;-68
2022/01/19 01:48:22;;;;;;;17.85;8.43;;;2.50;76.50;;;;;;4977253;28;20089;-69
2022/01/19 01:53:34;;;;;;;15.00;8.30;;;2.50;76.60;;;;;;4975651;28;20068;-68
2022/01/19 01:56:08;;;;;;;15.40;8.40;;;2.50;76.60;;;;;;4975433;28;20046;-69
2022/01/19 01:58:39;;;;;;;18.13;7.72;;;2.50;76.70;;;;;;4973994;28;20118;-68
2022/01/19 02:01:06;;;;;;;17.10;7.63;;;2.60;76.70;;;;;;4976128;28;20019;-68
2022/01/19 02:03:38;;;;;;;15.60;8.55;;;2.60;76.70;;;;;;4992557;28;20050;-69
2022/01/19 02:06:27;;;;;;;14.00;8.27;;;2.60;76.60;;;;;;4976040;28;20039;-69
2022/01/19 02:09:01;;;;;;;17.55;9.30;;;2.60;76.70;;;;;;4973987;28;20043;-68
2022/01/19 02:23:22;;;;;;;;;;;2.60;76.90;;;;;;4974730;28;20045;-69
2022/01/19 02:25:58;;;;;;;16.42;8.30;;;2.60;77.10;;;;;;4976485;28;20297;-68
2022/01/19 02:36:50;;;;;;;14.70;8.33;;;2.60;76.90;;;;;;4973731;28;20418;-67
2022/01/19 02:42:06;;;;;;;18.92;7.80;;;2.70;76.90;;;;;;4976145;28;20093;-68
2022/01/19 02:50:11;;;;;;;22.50;7.90;;;2.90;76.70;;;;;;4973379;28;20064;-68
2022/01/19 02:52:37;;;;;;;15.30;8.85;;;2.90;76.60;;;;;;4974603;28;20306;-68
2022/01/19 02:55:03;;;;;;;18.50;8.68;;;2.90;76.50;;;;;;4973579;28;20521;-68
2022/01/19 02:57:28;;;;;;;19.25;9.05;;;2.90;76.40;;;;;;4973125;28;20760;-68
2022/01/19 03:10:35;;;;;;;16.80;8.63;;;3.00;76.20;;;;;;4974692;28;20034;-68
2022/01/19 03:13:01;;;;;;;18.30;9.75;;;3.00;76.20;;;;;;4974132;28;20093;-68
2022/01/19 03:15:27;;;;;;;24.02;9.93;;;3.00;76.20;;;;;;4988409;28;20046;-68
2022/01/19 03:17:57;;;;;;;21.85;10.70;;;3.00;76.20;;;;;;4974838;28;20084;-69
2022/01/19 03:20:24;;;;;;;18.27;9.07;;;3.10;76.20;;;;;;4975203;28;20045;-68
2022/01/19 03:23:19;;;;;;;17.25;8.80;;;3.10;76.30;;;;;;4971564;28;20034;-68
2022/01/19 03:25:38;;;;;;;17.30;9.00;;;3.00;77.10;;;;;;4976341;28;20026;-69
2022/01/19 03:28:05;;;;;;;15.55;8.65;;;3.10;76.30;;;;;;4976796;28;20023;-68
2022/01/19 03:30:32;;;;;;;17.73;9.27;;;3.10;76.30;;;;;;4976341;28;20410;-69
2022/01/19 03:32:57;;;;;;;17.08;8.88;;;3.00;76.20;;;;;;4976469;28;20034;-69
2022/01/19 03:35:23;;;;;;;17.15;9.18;;;3.00;76.20;;;;;;4976502;28;20138;-68
2022/01/19 03:37:49;;;;;;;19.45;11.13;;;3.00;76.30;;;;;;4977511;28;20030;-68
2022/01/19 03:40:15;;;;;;;20.25;10.50;;;3.00;76.50;;;;;;4977786;28;20035;-69
2022/01/19 03:42:41;;;;;;;18.20;11.07;;;2.90;76.60;;;;;;4976570;28;20035;-68
2022/01/19 03:45:09;;;;;;;16.40;9.20;;;2.90;76.70;;;;;;4977821;28;20034;-69
2022/01/19 03:47:41;;;;;;;18.48;9.63;;;2.80;76.90;;;;;;4976644;28;20121;-68
2022/01/19 03:50:08;;;;;;;17.17;9.30;;;2.80;77.10;;;;;;4974595;28;20445;-69
2022/01/19 03:52:34;;;;;;;14.82;9.88;;;2.80;77.30;;;;;;4991972;28;20665;-69
2022/01/19 03:55:00;;;;;;;18.08;10.48;;;2.70;77.30;;;;;;4982813;28;20053;-69
2022/01/19 03:57:26;;;;;;;16.92;10.20;;;2.80;77.40;;;;;;4977548;28;20031;-69
2022/01/19 03:59:51;;;;;;;20.73;10.57;;;2.70;77.40;;;;;;4983172;28;20066;-68
2022/01/19 04:02:18;;;;;;;19.65;10.57;;;2.70;77.40;;;;;;4976307;28;20034;-68
2022/01/19 04:05:00;;;;;;;18.63;10.10;;;2.70;77.40;;;;;;4975399;28;20100;-68
2022/01/19 04:07:26;;;;;;;24.63;11.55;;;2.80;77.60;;;;;;4979511;28;20053;-68
2022/01/19 04:09:51;;;;;;;21.27;11.32;;;2.80;77.60;;;;;;4981022;28;20577;-69
2022/01/19 04:12:25;;;;;;;26.55;13.43;;;2.80;77.70;;;;;;4979687;28;20605;-68
2022/01/19 04:14:51;;;;;;;23.35;12.02;;;2.80;77.70;;;;;;4979341;28;20027;-69
2022/01/19 04:17:17;;;;;;;26.25;13.38;;;2.90;77.70;;;;;;4979590;28;20125;-68
2022/01/19 04:19:46;;;;;;;25.45;11.15;;;2.90;77.60;;;;;;4979877;28;20033;-69
2022/01/19 04:22:20;;;;;;;18.70;10.38;;;3.00;77.50;;;;;;4982020;28;20033;-68
2022/01/19 04:24:47;;;;;;;18.20;10.50;;;3.00;77.30;;;;;;4992256;28;20042;-68
2022/01/19 04:32:50;;;;;;;13.82;8.98;;;3.10;77.00;;;;;;4974493;28;20554;-70
2022/01/19 04:35:21;;;;;;;16.27;9.15;;;3.10;76.90;;;;;;4980530;28;20039;-67
2022/01/19 04:48:36;;;;;;;14.90;8.60;;;3.20;76.90;;;;;;4975335;28;20054;-67
2022/01/19 05:07:33;;;;;;;18.55;10.00;;;3.30;76.80;;;;;;4979390;28;20041;-68
2022/01/19 05:15:28;;;;;;;18.33;10.45;;;3.30;76.70;;;;;;4974966;28;20529;-69
2022/01/19 05:17:53;;;;;;;17.67;10.38;;;3.30;76.60;;;;;;4974976;28;20030;-69
2022/01/19 05:20:19;;;;;;;20.17;10.52;;;3.30;76.60;;;;;;4975274;28;20113;-68
2022/01/19 05:22:45;;;;;;;16.92;10.30;;;3.30;76.60;;;;;;4979569;28;20042;-69
2022/01/19 05:25:10;;;;;;;18.38;11.10;;;3.30;76.60;;;;;;4976170;28;20046;-68
2022/01/19 05:27:36;;;;;;;20.60;11.70;;;3.30;76.70;;;;;;4973757;28;20678;-68
2022/01/19 05:30:03;;;;;;;18.75;11.07;;;3.30;76.80;;;;;;4973133;28;20058;-69
2022/01/19 05:32:28;;;;;;;22.75;11.85;;;3.20;76.90;;;;;;4961046;28;20034;-68
2022/01/19 05:34:54;;;;;;;18.30;10.85;;;3.20;76.90;;;;;;4975065;28;20041;-68
2022/01/19 05:37:20;;;;;;;17.77;11.07;;;3.20;77.10;;;;;;4977953;28;20061;-69
2022/01/19 05:39:46;;;;;;;18.20;10.80;;;3.30;77.20;;;;;;4977733;28;20034;-67
2022/01/19 05:42:15;;;;;;;17.83;11.00;;;3.30;78.00;;;;;;4978467;28;20030;-69
2022/01/19 05:44:45;;;;;;;17.65;10.73;;;3.30;77.20;;;;;;4976909;28;20035;-69
2022/01/19 05:47:13;;;;;;;19.77;11.70;;;3.30;77.20;;;;;;4976773;28;20038;-69
2022/01/19 05:49:39;;;;;;;18.17;11.70;;;3.40;77.20;;;;;;4977291;28;20030;-69
2022/01/19 05:52:06;;;;;;;16.92;10.95;;;3.40;77.10;;;;;;4976683;28;20031;-69
2022/01/19 05:54:32;;;;;;;18.95;11.73;;;3.40;76.90;;;;;;4977082;28;20046;-69
2022/01/19 05:56:58;;;;;;;19.23;12.30;;;3.40;76.80;;;;;;4976226;28;20121;-69
2022/01/19 05:59:24;;;;;;;19.33;11.90;;;3.40;76.70;;;;;;4979429;28;20651;-69
2022/01/19 06:01:50;;;;;;;18.42;12.30;;;3.40;76.70;;;;;;4977703;28;20114;-69
2022/01/19 06:04:15;;;;;;;20.95;12.75;;;3.40;76.70;;;;;;4977471;28;20042;-69
2022/01/19 06:06:41;;;;;;;21.50;13.45;;;3.40;76.80;;;;;;4976648;28;20038;-69
2022/01/19 06:09:22;;;;;;;22.55;13.73;;;3.40;76.80;;;;;;4977321;28;20684;-69
2022/01/19 06:11:48;;;;;;;22.02;12.85;;;3.40;76.70;;;;;;4991995;28;20038;-68
2022/01/19 06:14:14;;;;;;;18.63;12.35;;;3.40;76.70;;;;;;4978938;28;20061;-69
2022/01/19 06:16:41;;;;;;;20.52;12.57;;;3.40;76.70;;;;;;4978659;28;20042;-68
2022/01/19 06:19:06;;;;;;;18.80;12.15;;;3.30;76.70;;;;;;4975778;28;20114;-68
2022/01/19 06:21:32;;;;;;;20.80;13.48;;;3.40;76.70;;;;;;4976914;28;20117;-69
2022/01/19 06:23:58;;;;;;;21.27;12.60;;;3.40;76.70;;;;;;4978054;28;20234;-68
2022/01/19 06:26:24;;;;;;;22.08;12.88;;;3.40;76.70;;;;;;4977300;28;20560;-68
2022/01/19 06:28:51;;;;;;;20.92;13.23;;;3.40;76.70;;;;;;4976790;28;20034;-69
2022/01/19 06:31:17;;;;;;;19.90;12.77;;;3.40;76.70;;;;;;4977143;28;20114;-69
2022/01/19 06:33:42;;;;;;;21.20;13.52;;;3.40;76.70;;;;;;4977214;28;20114;-68
2022/01/19 06:36:08;;;;;;;26.88;12.57;;;3.40;76.80;;;;;;4976964;28;20499;-68
2022/01/19 06:38:33;;;;;;;20.40;13.23;;;3.40;76.70;;;;;;4977941;28;20039;-69
2022/01/19 06:40:59;;;;;;;20.17;13.57;;;3.40;76.60;;;;;;4981517;28;20069;-69
2022/01/19 06:43:25;;;;;;;22.08;13.45;;;3.40;76.60;;;;;;4974634;28;20042;-68
2022/01/19 06:45:52;;;;;;;21.35;13.20;;;3.40;76.60;;;;;;4977148;28;20477;-68
2022/01/19 06:48:17;;;;;;;25.80;14.68;;;3.40;76.60;;;;;;4976326;28;20034;-68
2022/01/19 06:50:43;;;;;;;24.00;14.38;;;3.40;76.60;;;;;;4974778;28;20453;-69
2022/01/19 06:53:09;;;;;;;22.63;14.02;;;3.40;76.60;;;;;;4975855;28;20035;-68
2022/01/19 06:55:34;;;;;;;20.65;13.95;;;3.40;76.40;;;;;;4971424;28;20044;-69
2022/01/19 06:58:00;;;;;;;20.92;13.52;;;3.40;76.40;;;;;;4974745;28;20046;-68
2022/01/19 07:00:26;;;;;;;21.55;13.98;;;3.40;76.40;;;;;;4974100;28;20054;-68
2022/01/19 07:02:53;;;;;;;26.08;14.80;;;3.30;76.40;;;;;;4977747;28;20152;-68
2022/01/19 07:05:18;;;;;;;23.88;13.40;;;3.30;76.40;;;;;;4977225;28;20967;-69
2022/01/19 07:07:44;;;;;;;21.52;13.82;;;3.30;76.40;;;;;;4975997;28;20035;-68
2022/01/19 07:10:10;;;;;;;23.88;14.27;;;3.30;76.40;;;;;;4976184;28;20659;-69
2022/01/19 07:12:36;;;;;;;22.23;14.57;;;3.30;76.40;;;;;;4975504;28;20026;-68
2022/01/19 07:15:03;;;;;;;28.77;16.20;;;3.30;76.40;;;;;;4977860;28;20034;-68
2022/01/19 07:17:28;;;;;;;22.73;14.23;;;3.30;76.40;;;;;;4978380;28;20118;-68
2022/01/19 07:19:54;;;;;;;23.08;13.77;;;3.30;76.40;;;;;;4976072;28;20102;-68
2022/01/19 07:22:19;;;;;;;22.33;14.02;;;3.20;76.40;;;;;;4976534;28;20031;-69
2022/01/19 07:24:45;;;;;;;23.95;13.80;;;3.20;76.40;;;;;;4976408;28;20027;-69
2022/01/19 07:27:11;;;;;;;21.20;13.68;;;3.20;76.40;;;;;;4976399;28;20042;-69
2022/01/19 07:29:36;;;;;;;19.83;12.48;;;3.20;76.50;;;;;;4974011;28;20026;-69
2022/01/19 07:32:02;;;;;;;22.73;13.20;;;3.20;76.60;;;;;;4976351;28;20042;-66
2022/01/19 07:34:29;;;;;;;21.20;13.32;;;3.20;76.60;;;;;;4976771;28;20031;-68
2022/01/19 07:36:55;;;;;;;20.75;13.90;;;3.30;76.60;;;;;;4976698;28;20054;-69
2022/01/19 07:39:24;;;;;;;21.27;13.18;;;3.30;76.60;;;;;;4992402;28;20565;-69
2022/01/19 07:41:50;;;;;;;23.27;14.02;;;3.30;76.60;;;;;;4977351;28;20034;-68
2022/01/19 07:44:16;;;;;;;26.45;15.25;;;3.30;76.50;;;;;;4983238;28;20090;-69
2022/01/19 07:46:42;;;;;;;24.70;14.60;;;3.30;76.40;;;;;;4980445;28;20453;-69
2022/01/19 07:49:08;;;;;;;24.52;13.75;;;3.30;76.40;;;;;;4980684;28;20497;-68
2022/01/19 07:51:34;;;;;;;20.20;13.98;;;3.30;76.40;;;;;;4978967;28;20038;-69
2022/01/19 07:53:59;;;;;;;23.92;14.50;;;3.30;76.40;;;;;;4976038;28;20031;-68
2022/01/19 07:56:25;;;;;;;20.67;13.27;;;3.30;76.60;;;;;;4977268;28;20042;-70
2022/01/19 07:58:51;;;;;;;24.33;14.20;;;3.30;76.50;;;;;;4978288;28;20042;-69
2022/01/19 08:01:16;;;;;;;23.30;14.02;;;3.30;76.60;;;;;;4979240;28;20046;-68
2022/01/19 08:03:42;;;;;;;22.83;13.68;;;3.30;76.60;;;;;;4979279;28;20039;-68
2022/01/19 08:06:08;;;;;;;23.90;15.18;;;3.30;76.60;;;;;;4980268;28;21013;-69
2022/01/19 08:08:35;;;;;;;22.00;13.68;;;3.30;76.70;;;;;;4980089;28;20034;-68
2022/01/19 08:11:01;;;;;;;22.60;13.90;;;3.30;76.60;;;;;;4977203;28;20501;-68
2022/01/19 08:13:27;;;;;;;20.45;14.10;;;3.30;76.70;;;;;;4980387;28;20145;-68
2022/01/19 08:15:52;;;;;;;23.77;14.27;;;3.30;76.70;;;;;;4979931;28;20037;-68
2022/01/19 08:18:18;;;;;;;22.15;14.40;;;3.30;76.70;;;;;;4978157;28;20599;-68
2022/01/19 08:20:44;;;;;;;21.20;13.50;;;3.30;76.70;;;;;;4978665;28;20050;-69
2022/01/19 08:23:10;;;;;;;21.58;14.20;;;3.30;76.70;;;;;;4980660;28;20418;-68
2022/01/19 08:25:36;;;;;;;22.23;13.45;;;3.40;76.70;;;;;;4977564;28;20133;-68
2022/01/19 08:28:02;;;;;;;24.92;14.23;;;3.40;76.80;;;;;;4978842;28;20490;-69
2022/01/19 08:30:28;;;;;;;26.17;14.32;;;3.40;76.80;;;;;;4978648;28;20042;-68
2022/01/19 08:32:53;;;;;;;24.42;15.07;;;3.40;76.70;;;;;;4979451;28;20041;-68
2022/01/19 08:35:19;;;;;;;22.92;13.95;;;3.40;76.70;;;;;;4978068;28;20120;-69
2022/01/19 08:37:45;;;;;;;22.35;14.27;;;3.40;76.70;;;;;;4982093;28;20026;-68
2022/01/19 08:40:13;;;;;;;23.25;14.77;;;3.40;76.90;;;;;;4982142;28;20038;-68
2022/01/19 08:42:38;;;;;;;22.42;14.75;;;3.40;76.60;;;;;;4978052;28;20057;-69
2022/01/19 08:45:07;;;;;;;23.63;13.98;;;3.40;76.60;;;;;;4978374;28;20499;-69
2022/01/19 08:47:35;;;;;;;24.95;14.68;;;3.50;76.70;;;;;;4979466;28;20053;-69
2022/01/19 08:50:01;;;;;;;25.15;15.23;;;3.40;76.60;;;;;;4984893;28;20026;-68
2022/01/19 08:52:27;;;;;;;21.58;14.25;;;3.40;76.70;;;;;;4980093;28;20041;-69
2022/01/19 08:54:52;;;;;;;22.65;14.20;;;3.40;76.70;;;;;;4978183;28;20043;-68
2022/01/19 08:57:19;;;;;;;24.58;15.02;;;3.50;76.90;;;;;;4980647;28;20113;-69
2022/01/19 08:59:44;;;;;;;22.38;14.32;;;3.50;76.90;;;;;;4977437;28;20133;-68
2022/01/19 09:02:10;;;;;;;22.83;14.35;;;3.50;76.70;;;;;;4978682;28;20386;-69
2022/01/19 09:04:36;;;;;;;23.27;14.20;;;3.50;76.70;;;;;;4979376;28;20026;-68
2022/01/19 09:07:02;;;;;;;22.08;14.80;;;3.50;76.70;;;;;;4979766;28;20045;-67
2022/01/19 09:09:28;;;;;;;22.58;14.80;;;3.50;76.70;;;;;;4979070;28;20121;-69
2022/01/19 09:11:53;;;;;;;27.13;14.93;;;3.60;76.70;;;;;;4975567;28;20520;-68
2022/01/19 09:14:19;;;;;;;24.75;14.93;;;3.60;76.70;;;;;;4974104;28;20710;-68
2022/01/19 09:16:49;;;;;;;24.33;15.48;;;3.60;76.70;;;;;;4976447;28;20035;-68
2022/01/19 09:19:16;;;;;;;23.02;14.93;;;3.60;76.60;;;;;;4978893;28;20513;-68
2022/01/19 09:21:42;;;;;;;23.65;15.30;;;3.60;76.40;;;;;;4992911;28;20038;-69
2022/01/19 09:24:10;;;;;;;24.33;15.50;;;3.70;76.60;;;;;;4979299;28;20034;-68
2022/01/19 09:26:36;;;;;;;25.25;15.38;;;3.60;76.60;;;;;;4984789;28;20121;-68
2022/01/19 09:29:02;;;;;;;22.08;14.90;;;3.60;76.60;;;;;;4979131;28;20582;-69
2022/01/19 09:31:28;;;;;;;24.45;15.45;;;3.60;76.60;;;;;;4979138;28;20036;-69
2022/01/19 09:34:04;;;;;;;22.85;14.75;;;3.60;76.60;;;;;;4979782;28;20031;-69
2022/01/19 09:36:35;;;;;;;21.15;14.35;;;3.70;76.60;;;;;;4979078;28;20031;-68
2022/01/19 09:39:03;;;;;;;23.42;15.25;;;3.70;76.60;;;;;;4979957;28;20489;-68
2022/01/19 09:41:29;;;;;;;22.63;14.82;;;3.70;76.70;;;;;;4979736;28;20036;-69
2022/01/19 09:43:55;;;;;;;24.42;15.43;;;3.80;76.70;;;;;;4979831;28;20035;-69
2022/01/19 09:46:21;;;;;;;20.88;14.55;;;3.80;76.80;;;;;;4979239;28;20042;-69
2022/01/19 09:48:47;;;;;;;24.52;14.88;;;3.90;76.70;;;;;;4979695;28;20060;-69
2022/01/19 09:51:14;;;;;;;25.98;15.05;;;3.90;76.70;;;;;;4977469;28;20094;-69
2022/01/19 09:53:41;;;;;;;25.60;15.52;;;4.00;76.70;;;;;;4980060;28;20097;-68
2022/01/19 09:56:07;;;;;;;24.70;15.50;;;4.00;76.70;;;;;;4979669;28;20398;-67
2022/01/19 09:58:33;;;;;;;29.77;16.15;;;4.10;76.60;;;;;;4980491;28;20035;-69
2022/01/19 10:00:59;;;;;;;25.27;15.43;;;4.10;76.50;;;;;;4977002;28;20612;-68
2022/01/19 10:03:30;;;;;;;22.92;15.73;;;4.20;76.40;;;;;;4976347;28;20030;-69
2022/01/19 10:05:55;;;;;;;23.50;15.32;;;4.20;76.30;;;;;;4973028;28;20701;-68
2022/01/19 10:08:41;;;;;;;23.80;15.55;;;4.30;76.30;;;;;;4979658;28;20045;-68
2022/01/19 10:11:16;;;;;;;25.02;15.02;;;4.30;76.00;;;;;;4974924;28;20066;-68
2022/01/19 10:17:02;;;;;;;26.20;15.88;;;4.40;76.00;;;;;;4979713;28;20042;-68
2022/01/19 10:19:32;;;;;;;24.60;15.65;;;4.50;75.90;;;;;;4983361;28;20030;-69
2022/01/19 10:22:15;;;;;;;21.88;15.27;;;4.60;75.70;;;;;;4978554;28;20416;-68
2022/01/19 10:25:04;;;;;;;25.58;15.05;;;4.60;75.30;;;;;;4979144;28;20039;-69
2022/01/19 10:27:32;;;;;;;24.40;14.50;;;4.70;75.30;;;;;;4968424;28;20411;-69
2022/01/19 10:30:04;;;;;;;25.17;14.93;;;4.70;75.60;;;;;;4979687;28;20038;-67
2022/01/19 10:32:35;;;;;;;25.98;15.57;;;4.80;75.40;;;;;;4979382;28;20030;-69
2022/01/19 10:35:19;;;;;;;23.45;14.38;;;4.80;75.30;;;;;;4980036;28;20736;-68
2022/01/19 10:37:47;;;;;;;24.42;15.27;;;4.90;75.00;;;;;;4980092;28;20038;-69
2022/01/19 10:40:20;;;;;;;23.27;15.70;;;5.00;75.20;;;;;;4978331;28;20097;-69
2022/01/19 10:42:47;;;;;;;24.50;15.00;;;5.00;74.80;;;;;;4979348;28;20082;-69
2022/01/19 10:45:15;;;;;;;27.95;17.15;;;5.10;74.80;;;;;;4978519;28;20046;-67
2022/01/19 10:47:53;;;;;;;24.80;15.25;;;5.10;75.10;;;;;;4992347;28;20033;-69
2022/01/19 10:50:31;;;;;;;23.25;14.55;;;5.20;74.60;;;;;;4978215;28;20039;-69
2022/01/19 10:53:00;;;;;;;22.80;15.13;;;5.30;74.60;;;;;;4979955;28;20035;-69
2022/01/19 10:55:29;;;;;;;22.77;14.50;;;5.30;74.40;;;;;;4993582;28;20050;-68
2022/01/19 10:57:56;;;;;;;21.50;14.57;;;5.30;74.40;;;;;;4977957;28;20089;-69
2022/01/19 11:00:26;;;;;;;21.27;13.73;;;5.40;74.40;;;;;;4977850;28;20067;-68
2022/01/19 11:03:14;;;;;;;25.48;14.45;;;5.50;74.30;;;;;;4979574;28;20034;-68
2022/01/19 11:05:47;;;;;;;24.48;14.68;;;5.50;73.80;;;;;;4978893;28;20058;-68
2022/01/19 11:08:15;;;;;;;24.40;14.73;;;5.60;74.20;;;;;;4968581;28;20066;-68
2022/01/19 11:10:41;;;;;;;21.98;14.60;;;5.70;74.10;;;;;;4972113;28;20398;-67
2022/01/19 11:13:13;;;;;;;22.20;14.07;;;5.80;74.00;;;;;;4974576;28;20042;-68
2022/01/19 11:15:41;;;;;;;23.27;14.52;;;5.80;73.70;;;;;;4980452;28;20035;-69
2022/01/19 11:18:07;;;;;;;20.83;14.02;;;5.90;73.70;;;;;;4984160;28;20117;-68
2022/01/19 11:20:42;;;;;;;24.52;14.40;;;5.90;73.40;;;;;;4982204;28;20539;-68
2022/01/19 11:23:19;;;;;;;34.15;18.15;;;6.00;72.90;;;;;;4981975;28;20046;-69
2022/01/19 11:25:50;;;;;;;36.53;19.23;;;6.10;72.40;;;;;;4983039;28;20062;-69
2022/01/19 11:28:33;;;;;;;27.20;15.85;;;6.10;72.70;;;;;;4988581;28;20039;-68
2022/01/19 11:31:11;;;;;;;27.98;16.80;;;6.20;71.90;;;;;;4983168;28;20037;-69
2022/01/19 11:33:44;;;;;;;29.10;18.48;;;6.30;72.10;;;;;;4984653;28;20042;-69
2022/01/19 11:36:21;;;;;;;23.38;15.38;;;6.30;71.50;;;;;;4986430;28;20088;-69
2022/01/19 11:38:52;;;;;;;26.25;17.42;;;6.30;71.50;;;;;;4981505;28;20093;-69
2022/01/19 11:41:18;;;;;;;31.02;18.30;;;6.30;71.90;;;;;;4982903;28;20037;-69
2022/01/19 11:43:55;;;;;;;26.67;16.48;;;6.50;72.60;;;;;;4980918;28;20030;-68
2022/01/19 11:46:39;;;;;;;23.83;15.90;;;6.50;71.90;;;;;;4978617;28;20121;-69
2022/01/19 11:49:09;;;;;;;22.33;14.55;;;6.50;71.90;;;;;;4975953;28;20031;-68
2022/01/19 11:51:54;;;;;;;23.05;15.00;;;6.60;72.20;;;;;;4985590;28;20081;-68
2022/01/19 11:54:33;;;;;;;24.33;14.65;;;6.70;72.00;;;;;;4981601;28;20057;-69
2022/01/19 11:56:58;;;;;;;21.90;13.25;;;6.80;71.10;;;;;;4981366;28;20639;-69
2022/01/19 11:59:25;;;;;;;20.48;13.82;;;6.80;71.80;;;;;;4982830;28;20048;-65
2022/01/19 12:01:51;;;;;;;21.27;13.38;;;6.90;71.60;;;;;;4982137;28;20030;-68
2022/01/19 12:04:22;;;;;;;18.80;12.88;;;7.00;71.40;;;;;;4982159;28;20031;-69
2022/01/19 12:06:48;;;;;;;23.02;13.90;;;7.20;71.20;;;;;;4980292;28;20050;-68
2022/01/19 12:09:16;;;;;;;26.98;15.27;;;7.20;71.10;;;;;;4983011;28;20038;-68
2022/01/19 12:11:49;;;;;;;22.38;14.35;;;7.30;70.50;;;;;;4982153;28;20140;-66
2022/01/19 12:14:20;;;;;;;20.33;13.88;;;7.40;70.40;;;;;;4981390;28;20121;-66
2022/01/19 12:17:03;;;;;;;29.48;17.23;;;7.50;70.40;;;;;;4982455;28;20045;-67
2022/01/19 12:19:40;;;;;;;36.22;18.88;;;7.60;69.70;;;;;;4982062;28;20041;-66
2022/01/19 12:22:23;;;;;;;28.70;18.33;;;7.60;70.10;;;;;;4983379;28;20133;-67
2022/01/19 12:25:06;;;;;;;30.55;18.73;;;7.70;69.90;;;;;;4982044;28;20034;-68
2022/01/19 12:27:34;;;;;;;29.95;18.77;;;7.70;69.90;;;;;;4980639;28;20458;-67
2022/01/19 12:30:01;;;;;;;30.23;19.02;;;7.70;70.20;;;;;;4982781;28;20517;-65
2022/01/19 12:32:27;;;;;;;29.92;19.45;;;7.80;70.00;;;;;;4982080;28;20524;-66
2022/01/19 12:34:57;;;;;;;30.30;19.45;;;7.80;70.00;;;;;;4980294;28;20050;-66
2022/01/19 12:37:42;;;;;;;34.97;20.75;;;7.80;69.90;;;;;;4981808;28;20039;-67
2022/01/19 12:40:17;;;;;;;32.00;20.40;;;7.80;69.50;;;;;;4981507;28;20144;-67
2022/01/19 12:42:42;;;;;;;;;;;7.80;69.80;;;;;;4981279;28;20030;-69
2022/01/19 12:45:16;;;;;;;26.08;15.45;;;7.80;70.00;;;;;;4981041;28;19925;-66
2022/01/19 12:47:43;;;;;;;22.53;14.57;;;7.80;69.30;;;;;;4979899;28;20046;-66
2022/01/19 12:50:09;;;;;;;30.95;18.58;;;7.80;69.40;;;;;;4980342;28;20027;-68
2022/01/19 12:52:49;;;;;;;31.63;19.55;;;7.80;69.70;;;;;;4980037;28;20035;-66
2022/01/19 12:55:16;;;;;;;30.00;18.98;;;7.80;69.90;;;;;;4980462;28;20129;-66
2022/01/19 12:57:42;;;;;;;30.75;19.63;;;7.80;70.00;;;;;;4979014;28;20057;-66
2022/01/19 13:00:10;;;;;;;30.67;19.00;;;7.80;69.80;;;;;;4980194;28;20546;-68
2022/01/19 13:02:36;;;;;;;29.45;18.33;;;7.80;69.70;;;;;;4977730;28;20038;-66
2022/01/19 13:05:08;;;;;;;30.35;19.08;;;7.80;69.90;;;;;;4979840;28;20049;-66
2022/01/19 13:07:37;;;;;;;27.67;17.40;;;7.80;69.70;;;;;;4981257;28;20043;-68
2022/01/19 13:13:04;;;;;;;26.20;13.40;;;7.90;68.10;;;;;;4975926;28;20043;-68
2022/01/19 13:15:51;;;;;;;18.75;12.15;;;7.90;67.80;;;;;;4979923;28;20125;-66
2022/01/19 13:18:44;;;;;;;22.25;13.20;;;8.00;68.00;;;;;;4979245;28;20465;-67
2022/01/19 13:21:19;;;;;;;20.23;13.25;;;8.00;66.80;;;;;;4980755;28;20030;-68
2022/01/19 13:24:06;;;;;;;21.75;13.57;;;8.00;67.30;;;;;;4981671;28;20034;-69
2022/01/19 13:26:41;;;;;;;23.80;14.48;;;8.10;65.90;;;;;;4980956;28;20034;-68
2022/01/19 13:29:23;;;;;;;21.95;14.68;;;8.10;66.90;;;;;;4979533;28;20118;-69
2022/01/19 13:32:19;;;;;;;19.80;13.77;;;8.20;67.10;;;;;;4978882;28;20023;-68
2022/01/19 13:34:50;;;;;;;21.60;14.30;;;8.20;66.70;;;;;;4980030;28;20044;-68
2022/01/19 13:37:16;;;;;;;20.50;13.55;;;8.20;66.80;;;;;;4979462;28;20042;-68
2022/01/19 13:39:42;;;;;;;20.30;13.73;;;8.20;66.80;;;;;;4978907;28;20146;-69
2022/01/19 13:42:08;;;;;;;20.50;13.40;;;8.20;66.40;;;;;;4977165;28;20129;-67
2022/01/19 13:44:36;;;;;;;22.08;13.32;;;8.20;66.60;;;;;;4976420;28;20050;-66
2022/01/19 13:47:16;;;;;;;19.73;14.10;;;8.20;66.50;;;;;;4975115;28;20105;-68
2022/01/19 13:49:52;;;;;;;19.08;13.38;;;8.20;65.70;;;;;;4978324;28;20038;-67
2022/01/19 13:52:24;;;;;;;20.15;13.05;;;8.20;65.70;;;;;;4977051;28;20039;-65
2022/01/19 13:54:50;;;;;;;20.52;13.27;;;8.10;66.20;;;;;;4978336;28;20043;-68
2022/01/19 13:57:29;;;;;;;22.30;14.27;;;8.10;65.90;;;;;;4979788;28;20053;-69
2022/01/19 14:00:09;;;;;;;21.98;14.23;;;8.10;65.70;;;;;;5011639;28;20438;-67
2022/01/19 14:02:35;;;;;;;22.85;14.25;;;8.10;66.00;;;;;;5013351;28;20065;-67
2022/01/19 14:05:04;;;;;;;20.58;13.73;;;8.10;66.20;;;;;;5015058;28;20128;-67
2022/01/19 14:07:29;;;;;;;21.88;14.10;;;8.00;66.50;;;;;;5013719;28;20030;-67
2022/01/19 14:10:05;;;;;;;21.30;14.25;;;8.00;66.10;;;;;;5016140;28;20041;-66
2022/01/19 14:12:32;;;;;;;22.63;14.60;;;8.00;65.70;;;;;;5009640;28;20177;-67
2022/01/19 14:15:00;;;;;;;25.60;14.02;;;8.00;65.90;;;;;;5015577;28;20088;-66
2022/01/19 14:17:40;;;;;;;26.83;15.55;;;8.00;65.90;;;;;;5015834;28;20039;-66